sensor_id;sensor_type;location;lat;lon;timestamp;pressure;altitude;pressure_sealevel;temperature;humidity
77871;BME280;67067;46.850;7.578;2023-05-07T00:00:25;95194.91;;;10.53;58.01
77871;BME280;67067;46.850;7.578;2023-05-07T00:01:27;95194.44;;;10.62;57.56
77871;BME280;67067;46.850;7.578;2023-05-07T00:02:28;95199.09;;;10.49;57.78
77871;BME280;67067;46.850;7.578;2023-05-07T00:03:31;95198.13;;;10.61;57.70
77871;BME280;67067;46.850;7.578;2023-05-07T00:04:32;95198.91;;;10.56;57.55
77871;BME280;67067;46.850;7.578;2023-05-07T00:05:38;95197.03;;;10.57;57.66
77871;BME280;67067;46.850;7.578;2023-05-07T00:06:40;95204.47;;;10.60;57.67
77871;BME280;67067;46.850;7.578;2023-05-07T00:07:42;95199.03;;;10.44;58.16
77871;BME280;67067;46.850;7.578;2023-05-07T00:08:44;95201.00;;;10.54;57.64
77871;BME280;67067;46.850;7.578;2023-05-07T00:09:45;95196.88;;;10.41;58.09
77871;BME280;67067;46.850;7.578;2023-05-07T00:10:47;95204.16;;;10.51;57.90
77871;BME280;67067;46.850;7.578;2023-05-07T00:11:49;95206.53;;;10.52;57.99
77871;BME280;67067;46.850;7.578;2023-05-07T00:12:52;95202.28;;;10.51;57.91
77871;BME280;67067;46.850;7.578;2023-05-07T00:13:54;95202.66;;;10.38;58.00
77871;BME280;67067;46.850;7.578;2023-05-07T00:14:55;95200.16;;;10.48;57.85
77871;BME280;67067;46.850;7.578;2023-05-07T00:15:59;95195.91;;;10.47;57.73
77871;BME280;67067;46.850;7.578;2023-05-07T00:17:01;95202.22;;;10.46;57.97
77871;BME280;67067;46.850;7.578;2023-05-07T00:18:03;95196.13;;;10.46;57.82
77871;BME280;67067;46.850;7.578;2023-05-07T00:19:05;95196.75;;;10.26;58.40
77871;BME280;67067;46.850;7.578;2023-05-07T00:20:07;95197.84;;;10.30;58.14
77871;BME280;67067;46.850;7.578;2023-05-07T00:21:09;95194.66;;;10.28;57.89
77871;BME280;67067;46.850;7.578;2023-05-07T00:22:11;95199.38;;;10.26;58.00
77871;BME280;67067;46.850;7.578;2023-05-07T00:23:13;95201.44;;;10.18;58.41
77871;BME280;67067;46.850;7.578;2023-05-07T00:24:15;95204.59;;;10.15;58.58
77871;BME280;67067;46.850;7.578;2023-05-07T00:25:16;95198.47;;;10.15;58.37
77871;BME280;67067;46.850;7.578;2023-05-07T00:26:21;95198.25;;;10.16;58.60
77871;BME280;67067;46.850;7.578;2023-05-07T00:27:25;95199.56;;;10.19;58.58
77871;BME280;67067;46.850;7.578;2023-05-07T00:28:31;95189.25;;;10.17;58.34
77871;BME280;67067;46.850;7.578;2023-05-07T00:29:32;95200.13;;;10.21;58.53
77871;BME280;67067;46.850;7.578;2023-05-07T00:30:35;95203.31;;;10.23;58.51
77871;BME280;67067;46.850;7.578;2023-05-07T00:31:37;95202.25;;;10.24;58.46
77871;BME280;67067;46.850;7.578;2023-05-07T00:32:39;95202.44;;;10.12;58.51
77871;BME280;67067;46.850;7.578;2023-05-07T00:33:40;95201.97;;;10.20;58.03
77871;BME280;67067;46.850;7.578;2023-05-07T00:34:44;95196.75;;;10.26;58.14
77871;BME280;67067;46.850;7.578;2023-05-07T00:35:46;95197.66;;;10.09;58.60
77871;BME280;67067;46.850;7.578;2023-05-07T00:36:49;95205.13;;;10.17;58.31
77871;BME280;67067;46.850;7.578;2023-05-07T00:37:50;95196.44;;;10.22;58.64
77871;BME280;67067;46.850;7.578;2023-05-07T00:38:53;95207.00;;;10.22;57.98
77871;BME280;67067;46.850;7.578;2023-05-07T00:39:56;95203.31;;;10.23;58.12
77871;BME280;67067;46.850;7.578;2023-05-07T00:40:57;95200.53;;;10.07;58.28
77871;BME280;67067;46.850;7.578;2023-05-07T00:41:59;95199.84;;;10.17;58.27
77871;BME280;67067;46.850;7.578;2023-05-07T00:43:02;95197.69;;;10.14;58.20
77871;BME280;67067;46.850;7.578;2023-05-07T00:44:05;95202.72;;;10.16;58.07
77871;BME280;67067;46.850;7.578;2023-05-07T00:45:08;95196.88;;;10.14;58.13
77871;BME280;67067;46.850;7.578;2023-05-07T00:46:13;95200.84;;;10.11;58.28
77871;BME280;67067;46.850;7.578;2023-05-07T00:47:16;95203.97;;;10.08;58.27
77871;BME280;67067;46.850;7.578;2023-05-07T00:48:18;95202.94;;;10.09;58.35
77871;BME280;67067;46.850;7.578;2023-05-07T00:49:21;95203.41;;;10.06;58.27
77871;BME280;67067;46.850;7.578;2023-05-07T00:50:26;95199.09;;;10.00;58.29
77871;BME280;67067;46.850;7.578;2023-05-07T00:51:29;95208.91;;;9.99;58.29
77871;BME280;67067;46.850;7.578;2023-05-07T00:52:31;95207.81;;;9.95;58.50
77871;BME280;67067;46.850;7.578;2023-05-07T00:53:33;95204.28;;;9.89;58.53
77871;BME280;67067;46.850;7.578;2023-05-07T00:54:36;95206.38;;;9.87;58.65
77871;BME280;67067;46.850;7.578;2023-05-07T00:55:38;95207.75;;;9.90;58.61
77871;BME280;67067;46.850;7.578;2023-05-07T00:56:40;95205.88;;;9.90;58.68
77871;BME280;67067;46.850;7.578;2023-05-07T00:57:42;95201.16;;;9.92;58.66
77871;BME280;67067;46.850;7.578;2023-05-07T00:58:44;95200.59;;;9.90;58.77
77871;BME280;67067;46.850;7.578;2023-05-07T00:59:46;95203.19;;;9.85;58.80
77871;BME280;67067;46.850;7.578;2023-05-07T01:00:48;95198.22;;;9.89;58.61
77871;BME280;67067;46.850;7.578;2023-05-07T01:01:50;95197.56;;;9.76;58.85
77871;BME280;67067;46.850;7.578;2023-05-07T01:02:51;95204.22;;;9.84;58.86
77871;BME280;67067;46.850;7.578;2023-05-07T01:03:56;95200.06;;;9.88;58.77
77871;BME280;67067;46.850;7.578;2023-05-07T01:05:03;95208.47;;;9.85;58.73
77871;BME280;67067;46.850;7.578;2023-05-07T01:06:07;95201.59;;;9.84;58.94
77871;BME280;67067;46.850;7.578;2023-05-07T01:07:10;95204.50;;;9.83;58.89
77871;BME280;67067;46.850;7.578;2023-05-07T01:08:12;95207.94;;;9.83;58.70
77871;BME280;67067;46.850;7.578;2023-05-07T01:09:15;95205.00;;;9.79;58.65
77871;BME280;67067;46.850;7.578;2023-05-07T01:10:17;95202.97;;;9.64;59.23
77871;BME280;67067;46.850;7.578;2023-05-07T01:11:19;95197.00;;;9.74;58.83
77871;BME280;67067;46.850;7.578;2023-05-07T01:12:22;95199.38;;;9.76;58.81
77871;BME280;67067;46.850;7.578;2023-05-07T01:13:26;95197.78;;;9.75;58.96
77871;BME280;67067;46.850;7.578;2023-05-07T01:14:29;95202.03;;;9.76;59.00
77871;BME280;67067;46.850;7.578;2023-05-07T01:15:32;95195.16;;;9.75;58.88
77871;BME280;67067;46.850;7.578;2023-05-07T01:16:36;95196.75;;;9.76;59.04
77871;BME280;67067;46.850;7.578;2023-05-07T01:17:40;95199.38;;;9.76;58.99
77871;BME280;67067;46.850;7.578;2023-05-07T01:18:47;95195.16;;;9.75;58.86
77871;BME280;67067;46.850;7.578;2023-05-07T01:19:50;95194.09;;;9.76;59.01
77871;BME280;67067;46.850;7.578;2023-05-07T01:20:58;95195.19;;;9.80;58.81
77871;BME280;67067;46.850;7.578;2023-05-07T01:22:07;95195.97;;;9.75;58.80
77871;BME280;67067;46.850;7.578;2023-05-07T01:23:19;95203.41;;;9.78;58.75
77871;BME280;67067;46.850;7.578;2023-05-07T01:24:20;95206.94;;;9.67;58.85
77871;BME280;67067;46.850;7.578;2023-05-07T01:25:23;95199.94;;;9.78;58.54
77871;BME280;67067;46.850;7.578;2023-05-07T01:26:30;95204.19;;;9.79;58.72
77871;BME280;67067;46.850;7.578;2023-05-07T01:27:35;95206.59;;;9.80;58.85
77871;BME280;67067;46.850;7.578;2023-05-07T01:28:38;95199.44;;;9.81;58.70
77871;BME280;67067;46.850;7.578;2023-05-07T01:29:45;95201.59;;;9.84;58.42
77871;BME280;67067;46.850;7.578;2023-05-07T01:30:53;95206.31;;;9.82;58.74
77871;BME280;67067;46.850;7.578;2023-05-07T01:31:59;95206.03;;;9.78;58.50
77871;BME280;67067;46.850;7.578;2023-05-07T01:33:08;95212.88;;;9.74;58.36
77871;BME280;67067;46.850;7.578;2023-05-07T01:34:12;95213.09;;;9.73;58.21
77871;BME280;67067;46.850;7.578;2023-05-07T01:35:19;95216.78;;;9.72;58.20
77871;BME280;67067;46.850;7.578;2023-05-07T01:36:22;95209.72;;;9.77;58.37
77871;BME280;67067;46.850;7.578;2023-05-07T01:37:32;95209.47;;;9.79;58.39
77871;BME280;67067;46.850;7.578;2023-05-07T01:38:36;95205.22;;;9.78;58.54
77871;BME280;67067;46.850;7.578;2023-05-07T01:39:39;95205.00;;;9.79;58.40
77871;BME280;67067;46.850;7.578;2023-05-07T01:40:42;95204.19;;;9.79;58.20
77871;BME280;67067;46.850;7.578;2023-05-07T01:41:44;95204.44;;;9.77;58.33
77871;BME280;67067;46.850;7.578;2023-05-07T01:42:47;95211.56;;;9.77;58.24
77871;BME280;67067;46.850;7.578;2023-05-07T01:43:50;95211.25;;;9.73;58.27
77871;BME280;67067;46.850;7.578;2023-05-07T01:44:53;95198.28;;;9.72;58.47
77871;BME280;67067;46.850;7.578;2023-05-07T01:45:55;95209.91;;;9.71;58.35
77871;BME280;67067;46.850;7.578;2023-05-07T01:46:57;95208.53;;;9.68;58.12
77871;BME280;67067;46.850;7.578;2023-05-07T01:48:00;95206.94;;;9.67;58.25
77871;BME280;67067;46.850;7.578;2023-05-07T01:49:02;95206.66;;;9.63;58.29
77871;BME280;67067;46.850;7.578;2023-05-07T01:50:05;95208.34;;;9.52;58.83
77871;BME280;67067;46.850;7.578;2023-05-07T01:51:08;95199.75;;;9.62;58.40
77871;BME280;67067;46.850;7.578;2023-05-07T01:52:10;95208.25;;;9.64;58.49
77871;BME280;67067;46.850;7.578;2023-05-07T01:53:16;95203.19;;;9.63;58.53
77871;BME280;67067;46.850;7.578;2023-05-07T01:54:18;95209.34;;;9.46;58.73
77871;BME280;67067;46.850;7.578;2023-05-07T01:55:20;95212.91;;;9.57;58.36
77871;BME280;67067;46.850;7.578;2023-05-07T01:56:24;95215.00;;;9.55;58.36
77871;BME280;67067;46.850;7.578;2023-05-07T01:57:26;95213.41;;;9.54;58.25
77871;BME280;67067;46.850;7.578;2023-05-07T01:58:27;95215.50;;;9.52;58.45
77871;BME280;67067;46.850;7.578;2023-05-07T01:59:33;95212.28;;;9.50;58.35
77871;BME280;67067;46.850;7.578;2023-05-07T02:00:36;95210.69;;;9.49;58.40
77871;BME280;67067;46.850;7.578;2023-05-07T02:01:38;95215.97;;;9.49;58.18
77871;BME280;67067;46.850;7.578;2023-05-07T02:02:40;95211.97;;;9.46;58.60
77871;BME280;67067;46.850;7.578;2023-05-07T02:03:59;95210.16;;;9.47;58.27
77871;BME280;67067;46.850;7.578;2023-05-07T02:05:04;95213.84;;;9.46;58.16
77871;BME280;67067;46.850;7.578;2023-05-07T02:06:06;95211.69;;;9.43;58.30
77871;BME280;67067;46.850;7.578;2023-05-07T02:07:11;95210.09;;;9.42;58.02
77871;BME280;67067;46.850;7.578;2023-05-07T02:08:12;95210.38;;;9.28;58.18
77871;BME280;67067;46.850;7.578;2023-05-07T02:09:16;95206.06;;;9.39;58.01
77871;BME280;67067;46.850;7.578;2023-05-07T02:10:22;95206.31;;;9.37;58.31
77871;BME280;67067;46.850;7.578;2023-05-07T02:11:23;95206.31;;;9.37;58.03
77871;BME280;67067;46.850;7.578;2023-05-07T02:12:26;95205.84;;;9.41;58.26
77871;BME280;67067;46.850;7.578;2023-05-07T02:13:29;95210.31;;;9.40;58.31
77871;BME280;67067;46.850;7.578;2023-05-07T02:14:32;95209.28;;;9.41;58.42
77871;BME280;67067;46.850;7.578;2023-05-07T02:15:33;95206.41;;;9.43;58.36
77871;BME280;67067;46.850;7.578;2023-05-07T02:16:36;95208.47;;;9.41;58.58
77871;BME280;67067;46.850;7.578;2023-05-07T02:17:39;;;;9.30;
77871;BME280;67067;46.850;7.578;2023-05-07T02:19:02;95209.59;;;9.45;58.83
77871;BME280;67067;46.850;7.578;2023-05-07T02:20:06;95212.78;;;9.47;58.39
77871;BME280;67067;46.850;7.578;2023-05-07T02:21:15;95215.66;;;9.45;58.66
77871;BME280;67067;46.850;7.578;2023-05-07T02:22:17;95209.88;;;9.48;58.46
77871;BME280;67067;46.850;7.578;2023-05-07T02:23:24;95211.75;;;9.48;58.34
77871;BME280;67067;46.850;7.578;2023-05-07T02:24:28;95208.28;;;9.47;58.25
77871;BME280;67067;46.850;7.578;2023-05-07T02:25:31;95211.47;;;9.49;58.27
77871;BME280;67067;46.850;7.578;2023-05-07T02:26:33;95209.34;;;9.46;58.22
77871;BME280;67067;46.850;7.578;2023-05-07T02:27:35;95208.28;;;9.47;58.33
77871;BME280;67067;46.850;7.578;2023-05-07T02:28:37;95214.63;;;9.46;58.50
77871;BME280;67067;46.850;7.578;2023-05-07T02:29:42;95209.59;;;9.45;58.55
77871;BME280;67067;46.850;7.578;2023-05-07T02:30:44;95204.81;;;9.42;58.59
77871;BME280;67067;46.850;7.578;2023-05-07T02:31:45;95213.56;;;9.30;58.71
77871;BME280;67067;46.850;7.578;2023-05-07T02:32:47;95209.16;;;9.36;58.61
77871;BME280;67067;46.850;7.578;2023-05-07T02:33:50;95213.91;;;9.34;58.77
77871;BME280;67067;46.850;7.578;2023-05-07T02:34:52;95206.53;;;9.36;58.54
77871;BME280;67067;46.850;7.578;2023-05-07T02:35:55;95204.13;;;9.34;59.07
77871;BME280;67067;46.850;7.578;2023-05-07T02:36:57;95203.88;;;9.36;59.04
77871;BME280;67067;46.850;7.578;2023-05-07T02:38:00;95208.94;;;9.37;59.06
77871;BME280;67067;46.850;7.578;2023-05-07T02:39:02;95206.63;;;9.24;59.24
77871;BME280;67067;46.850;7.578;2023-05-07T02:40:04;95217.31;;;9.34;58.89
77871;BME280;67067;46.850;7.578;2023-05-07T02:41:06;95204.69;;;9.36;58.77
77871;BME280;67067;46.850;7.578;2023-05-07T02:42:08;95212.84;;;9.35;58.71
77871;BME280;67067;46.850;7.578;2023-05-07T02:43:10;95214.22;;;9.37;58.53
77871;BME280;67067;46.850;7.578;2023-05-07T02:44:15;95206.53;;;9.36;58.50
77871;BME280;67067;46.850;7.578;2023-05-07T02:45:18;95213.19;;;9.39;58.28
77871;BME280;67067;46.850;7.578;2023-05-07T02:46:21;95204.22;;;9.40;58.35
77871;BME280;67067;46.850;7.578;2023-05-07T02:47:30;95215.81;;;9.39;58.44
77871;BME280;67067;46.850;7.578;2023-05-07T02:48:34;95208.47;;;9.41;58.66
77871;BME280;67067;46.850;7.578;2023-05-07T02:49:36;95210.09;;;9.42;58.52
77871;BME280;67067;46.850;7.578;2023-05-07T02:50:39;95211.91;;;9.41;58.53
77871;BME280;67067;46.850;7.578;2023-05-07T02:51:44;95213.78;;;9.41;58.46
77871;BME280;67067;46.850;7.578;2023-05-07T02:52:52;95211.00;;;9.35;58.50
77871;BME280;67067;46.850;7.578;2023-05-07T02:53:54;95212.13;;;9.40;58.50
77871;BME280;67067;46.850;7.578;2023-05-07T02:54:56;95205.59;;;9.25;58.68
77871;BME280;67067;46.850;7.578;2023-05-07T02:55:59;95207.81;;;9.33;58.48
77871;BME280;67067;46.850;7.578;2023-05-07T02:57:05;95200.69;;;9.34;58.40
77871;BME280;67067;46.850;7.578;2023-05-07T02:58:06;95210.31;;;9.23;58.66
77871;BME280;67067;46.850;7.578;2023-05-07T02:59:10;95212.03;;;9.34;58.54
77871;BME280;67067;46.850;7.578;2023-05-07T03:00:17;95207.31;;;9.36;58.36
77871;BME280;67067;46.850;7.578;2023-05-07T03:01:37;95209.41;;;9.34;58.34
77871;BME280;67067;46.850;7.578;2023-05-07T03:02:41;95209.97;;;9.36;58.35
77871;BME280;67067;46.850;7.578;2023-05-07T03:03:43;95204.00;;;9.24;58.69
77871;BME280;67067;46.850;7.578;2023-05-07T03:04:47;95214.69;;;9.34;58.25
77871;BME280;67067;46.850;7.578;2023-05-07T03:05:50;95211.59;;;9.37;58.20
77871;BME280;67067;46.850;7.578;2023-05-07T03:06:51;95217.19;;;9.24;58.92
77871;BME280;67067;46.850;7.578;2023-05-07T03:07:57;95206.75;;;9.34;58.39
77871;BME280;67067;46.850;7.578;2023-05-07T03:08:59;95210.53;;;9.39;58.33
77871;BME280;67067;46.850;7.578;2023-05-07T03:10:00;95216.16;;;9.25;58.46
77871;BME280;67067;46.850;7.578;2023-05-07T03:11:05;95215.72;;;9.33;58.39
77871;BME280;67067;46.850;7.578;2023-05-07T03:12:06;95216.56;;;9.17;59.02
77871;BME280;67067;46.850;7.578;2023-05-07T03:13:08;95211.19;;;9.29;58.48
77871;BME280;67067;46.850;7.578;2023-05-07T03:14:10;95214.41;;;9.14;59.05
77871;BME280;67067;46.850;7.578;2023-05-07T03:15:12;95214.56;;;9.24;58.57
77871;BME280;67067;46.850;7.578;2023-05-07T03:16:14;95218.84;;;9.30;58.47
77871;BME280;67067;46.850;7.578;2023-05-07T03:17:15;95216.16;;;9.25;58.61
77871;BME280;67067;46.850;7.578;2023-05-07T03:18:18;95217.75;;;9.26;58.64
77871;BME280;67067;46.850;7.578;2023-05-07T03:19:20;95213.75;;;9.23;58.51
77871;BME280;67067;46.850;7.578;2023-05-07T03:20:24;95219.84;;;9.24;58.73
77871;BME280;67067;46.850;7.578;2023-05-07T03:21:25;95217.31;;;9.12;58.62
77871;BME280;67067;46.850;7.578;2023-05-07T03:22:28;95220.31;;;9.21;58.51
77871;BME280;67067;46.850;7.578;2023-05-07T03:23:29;95219.47;;;8.98;59.47
77871;BME280;67067;46.850;7.578;2023-05-07T03:24:36;95221.56;;;9.13;58.82
77871;BME280;67067;46.850;7.578;2023-05-07T03:25:37;95218.91;;;9.13;58.69
77871;BME280;67067;46.850;7.578;2023-05-07T03:26:39;95223.53;;;9.06;59.04
77871;BME280;67067;46.850;7.578;2023-05-07T03:27:43;95216.75;;;9.10;58.71
77871;BME280;67067;46.850;7.578;2023-05-07T03:28:45;95217.78;;;9.09;58.97
77871;BME280;67067;46.850;7.578;2023-05-07T03:29:49;95210.09;;;9.07;58.94
77871;BME280;67067;46.850;7.578;2023-05-07T03:30:50;95214.84;;;8.88;59.16
77871;BME280;67067;46.850;7.578;2023-05-07T03:31:52;95215.25;;;8.97;58.87
77871;BME280;67067;46.850;7.578;2023-05-07T03:32:54;95207.41;;;8.85;59.31
77871;BME280;67067;46.850;7.578;2023-05-07T03:33:57;95218.44;;;8.99;58.95
77871;BME280;67067;46.850;7.578;2023-05-07T03:35:01;95218.66;;;8.98;58.92
77871;BME280;67067;46.850;7.578;2023-05-07T03:36:04;95219.69;;;8.97;59.22
77871;BME280;67067;46.850;7.578;2023-05-07T03:37:09;95218.91;;;8.96;59.11
77871;BME280;67067;46.850;7.578;2023-05-07T03:38:13;95216.28;;;8.96;59.12
77871;BME280;67067;46.850;7.578;2023-05-07T03:39:16;95222.34;;;8.97;59.25
77871;BME280;67067;46.850;7.578;2023-05-07T03:40:20;95221.00;;;8.94;59.21
77871;BME280;67067;46.850;7.578;2023-05-07T03:41:26;95226.28;;;8.94;58.99
77871;BME280;67067;46.850;7.578;2023-05-07T03:42:28;95218.91;;;8.96;59.31
77871;BME280;67067;46.850;7.578;2023-05-07T03:43:30;95216.50;;;8.94;59.34
77871;BME280;67067;46.850;7.578;2023-05-07T03:44:38;95218.84;;;8.91;59.20
77871;BME280;67067;46.850;7.578;2023-05-07T03:45:43;95220.50;;;8.80;59.59
77871;BME280;67067;46.850;7.578;2023-05-07T03:46:49;95218.84;;;8.91;59.11
77871;BME280;67067;46.850;7.578;2023-05-07T03:47:51;95223.88;;;8.92;59.20
77871;BME280;67067;46.850;7.578;2023-05-07T03:48:54;95220.66;;;8.90;59.48
77871;BME280;67067;46.850;7.578;2023-05-07T03:49:56;95225.00;;;8.79;59.41
77871;BME280;67067;46.850;7.578;2023-05-07T03:50:59;95226.28;;;8.77;59.43
77871;BME280;67067;46.850;7.578;2023-05-07T03:52:05;95224.13;;;8.91;59.10
77871;BME280;67067;46.850;7.578;2023-05-07T03:53:07;95227.06;;;8.94;59.13
77871;BME280;67067;46.850;7.578;2023-05-07T03:54:13;95221.78;;;8.94;58.98
77871;BME280;67067;46.850;7.578;2023-05-07T03:55:18;95224.19;;;8.96;59.24
77871;BME280;67067;46.850;7.578;2023-05-07T03:56:29;95227.41;;;8.98;59.09
77871;BME280;67067;46.850;7.578;2023-05-07T03:57:32;95230.03;;;8.98;59.14
77871;BME280;67067;46.850;7.578;2023-05-07T03:58:33;95224.03;;;8.86;59.26
77871;BME280;67067;46.850;7.578;2023-05-07T03:59:40;95225.78;;;8.97;59.03
77871;BME280;67067;46.850;7.578;2023-05-07T04:00:43;95221.78;;;8.94;58.88
77871;BME280;67067;46.850;7.578;2023-05-07T04:02:10;95230.25;;;8.97;58.87
77871;BME280;67067;46.850;7.578;2023-05-07T04:03:12;95228.19;;;8.99;58.90
77871;BME280;67067;46.850;7.578;2023-05-07T04:04:15;95235.06;;;9.00;58.89
77871;BME280;67067;46.850;7.578;2023-05-07T04:05:17;95240.66;;;9.03;58.78
77871;BME280;67067;46.850;7.578;2023-05-07T04:06:24;95237.00;;;9.04;58.81
77871;BME280;67067;46.850;7.578;2023-05-07T04:07:28;95233.31;;;9.05;58.78
77871;BME280;67067;46.850;7.578;2023-05-07T04:08:30;95239.47;;;8.94;59.05
77871;BME280;67067;46.850;7.578;2023-05-07T04:09:32;95238.03;;;9.03;58.91
77871;BME280;67067;46.850;7.578;2023-05-07T04:10:33;95243.78;;;9.00;59.11
77871;BME280;67067;46.850;7.578;2023-05-07T04:11:42;95247.22;;;9.01;58.75
77871;BME280;67067;46.850;7.578;2023-05-07T04:12:45;95237.47;;;9.01;58.89
77871;BME280;67067;46.850;7.578;2023-05-07T04:13:53;95239.28;;;9.01;59.06
77871;BME280;67067;46.850;7.578;2023-05-07T04:14:58;95239.78;;;8.98;59.15
77871;BME280;67067;46.850;7.578;2023-05-07T04:16:04;95237.97;;;8.98;58.83
77871;BME280;67067;46.850;7.578;2023-05-07T04:17:10;95239.56;;;8.99;59.04
77871;BME280;67067;46.850;7.578;2023-05-07T04:18:15;95244.28;;;8.97;58.90
77871;BME280;67067;46.850;7.578;2023-05-07T04:19:18;95246.66;;;8.99;58.95
77871;BME280;67067;46.850;7.578;2023-05-07T04:20:23;95248.25;;;9.00;59.08
77871;BME280;67067;46.850;7.578;2023-05-07T04:21:31;95245.63;;;9.00;58.95
77871;BME280;67067;46.850;7.578;2023-05-07T04:22:36;95245.38;;;9.01;59.11
77871;BME280;67067;46.850;7.578;2023-05-07T04:23:38;95244.34;;;9.02;59.24
77871;BME280;67067;46.850;7.578;2023-05-07T04:24:44;95245.38;;;9.01;59.13
77871;BME280;67067;46.850;7.578;2023-05-07T04:25:47;95249.63;;;9.02;59.02
77871;BME280;67067;46.850;7.578;2023-05-07T04:27:03;95248.81;;;9.02;59.46
77871;BME280;67067;46.850;7.578;2023-05-07T04:28:08;95243.78;;;9.00;59.26
77871;BME280;67067;46.850;7.578;2023-05-07T04:29:10;95254.44;;;9.05;59.46
77871;BME280;67067;46.850;7.578;2023-05-07T04:33:14;95256.19;;;9.00;59.51
77871;BME280;67067;46.850;7.578;2023-05-07T04:34:17;95260.81;;;9.10;59.12
77871;BME280;67067;46.850;7.578;2023-05-07T04:35:20;95259.56;;;9.12;59.41
77871;BME280;67067;46.850;7.578;2023-05-07T04:36:21;95262.75;;;8.97;59.64
77871;BME280;67067;46.850;7.578;2023-05-07T04:37:31;95260.34;;;9.13;59.35
77871;BME280;67067;46.850;7.578;2023-05-07T04:38:34;95258.25;;;9.15;59.06
77871;BME280;67067;46.850;7.578;2023-05-07T04:39:37;95268.13;;;9.19;59.06
77871;BME280;67067;46.850;7.578;2023-05-07T04:40:39;95258.44;;;9.08;59.58
77871;BME280;67067;46.850;7.578;2023-05-07T04:41:42;95263.94;;;9.23;59.23
77871;BME280;67067;46.850;7.578;2023-05-07T04:42:44;95264.81;;;9.29;59.06
77871;BME280;67067;46.850;7.578;2023-05-07T04:43:46;95255.91;;;9.35;59.11
77871;BME280;67067;46.850;7.578;2023-05-07T04:44:53;95260.16;;;9.36;59.12
77871;BME280;67067;46.850;7.578;2023-05-07T04:45:56;95256.81;;;9.41;59.01
77871;BME280;67067;46.850;7.578;2023-05-07T04:47:00;95253.69;;;9.44;59.00
77871;BME280;67067;46.850;7.578;2023-05-07T04:48:02;95262.50;;;9.50;58.80
77871;BME280;67067;46.850;7.578;2023-05-07T04:49:05;95262.00;;;9.53;58.81
77871;BME280;67067;46.850;7.578;2023-05-07T04:50:07;95259.34;;;9.36;58.66
77871;BME280;67067;46.850;7.578;2023-05-07T04:51:10;95261.94;;;9.48;58.50
77871;BME280;67067;46.850;7.578;2023-05-07T04:52:12;95262.00;;;9.53;58.56
77871;BME280;67067;46.850;7.578;2023-05-07T04:53:17;95267.59;;;9.57;58.19
77871;BME280;67067;46.850;7.578;2023-05-07T04:54:21;95264.38;;;9.55;58.19
77871;BME280;67067;46.850;7.578;2023-05-07T04:55:22;95267.34;;;9.58;58.42
77871;BME280;67067;46.850;7.578;2023-05-07T04:56:28;95267.91;;;9.60;58.48
77871;BME280;67067;46.850;7.578;2023-05-07T04:57:34;95267.44;;;9.63;58.09
77871;BME280;67067;46.850;7.578;2023-05-07T04:58:35;95279.59;;;9.64;58.19
77871;BME280;67067;46.850;7.578;2023-05-07T04:59:37;95288.97;;;9.55;58.45
77871;BME280;67067;46.850;7.578;2023-05-07T05:00:41;95290.41;;;9.63;58.13
77871;BME280;67067;46.850;7.578;2023-05-07T05:01:44;95283.34;;;9.69;57.88
77871;BME280;67067;46.850;7.578;2023-05-07T05:02:48;95284.94;;;9.70;58.12
77871;BME280;67067;46.850;7.578;2023-05-07T05:03:53;95286.28;;;9.72;57.75
77871;BME280;67067;46.850;7.578;2023-05-07T05:04:55;95279.72;;;9.75;57.80
77871;BME280;67067;46.850;7.578;2023-05-07T05:05:57;95286.66;;;9.81;57.91
77871;BME280;67067;46.850;7.578;2023-05-07T05:07:03;95291.97;;;9.81;57.86
77871;BME280;67067;46.850;7.578;2023-05-07T05:08:05;95298.72;;;9.72;58.17
77871;BME280;67067;46.850;7.578;2023-05-07T05:09:09;95296.25;;;9.87;57.88
77871;BME280;67067;46.850;7.578;2023-05-07T05:10:15;95304.75;;;9.89;57.68
77871;BME280;67067;46.850;7.578;2023-05-07T05:11:19;95301.13;;;9.95;57.46
77871;BME280;67067;46.850;7.578;2023-05-07T05:12:21;95307.78;;;9.98;57.41
77871;BME280;67067;46.850;7.578;2023-05-07T05:13:27;95307.28;;;10.01;57.31
77871;BME280;67067;46.850;7.578;2023-05-07T05:14:32;95316.09;;;10.07;56.99
77871;BME280;67067;46.850;7.578;2023-05-07T05:15:34;95308.22;;;10.12;56.73
77871;BME280;67067;46.850;7.578;2023-05-07T05:16:36;95315.03;;;10.08;56.74
77871;BME280;67067;46.850;7.578;2023-05-07T05:17:39;95320.63;;;10.12;56.94
77871;BME280;67067;46.850;7.578;2023-05-07T05:18:41;95318.03;;;10.17;57.04
77871;BME280;67067;46.850;7.578;2023-05-07T05:19:48;95319.41;;;10.19;56.67
77871;BME280;67067;46.850;7.578;2023-05-07T05:20:51;95323.94;;;10.24;56.79
77871;BME280;67067;46.850;7.578;2023-05-07T05:21:52;95322.72;;;10.32;56.76
77871;BME280;67067;46.850;7.578;2023-05-07T05:22:54;95320.00;;;10.27;57.03
77871;BME280;67067;46.850;7.578;2023-05-07T05:23:56;95315.22;;;10.46;56.56
77871;BME280;67067;46.850;7.578;2023-05-07T05:24:59;95323.28;;;10.56;56.40
77871;BME280;67067;46.850;7.578;2023-05-07T05:26:02;95324.13;;;10.62;56.28
77871;BME280;67067;46.850;7.578;2023-05-07T05:27:06;95316.78;;;10.69;56.13
77871;BME280;67067;46.850;7.578;2023-05-07T05:28:08;95310.78;;;10.79;55.93
77871;BME280;67067;46.850;7.578;2023-05-07T05:29:09;95310.88;;;10.89;55.87
77871;BME280;67067;46.850;7.578;2023-05-07T05:30:14;95320.47;;;10.95;55.80
77871;BME280;67067;46.850;7.578;2023-05-07T05:31:19;95306.75;;;11.04;55.61
77871;BME280;67067;46.850;7.578;2023-05-07T05:32:21;95321.34;;;11.06;55.44
77871;BME280;67067;46.850;7.578;2023-05-07T05:33:25;95321.44;;;11.17;55.52
77871;BME280;67067;46.850;7.578;2023-05-07T05:34:27;95318.91;;;11.32;55.52
77871;BME280;67067;46.850;7.578;2023-05-07T05:35:32;95312.88;;;11.42;55.39
77871;BME280;67067;46.850;7.578;2023-05-07T05:36:37;95317.97;;;11.49;55.17
77871;BME280;67067;46.850;7.578;2023-05-07T05:37:43;95326.56;;;11.61;54.97
77871;BME280;67067;46.850;7.578;2023-05-07T05:38:46;95314.97;;;11.73;54.95
77871;BME280;67067;46.850;7.578;2023-05-07T05:39:48;95317.41;;;11.79;54.65
77871;BME280;67067;46.850;7.578;2023-05-07T05:40:50;95314.53;;;11.91;54.52
77871;BME280;67067;46.850;7.578;2023-05-07T05:41:52;95314.53;;;11.96;54.00
77871;BME280;67067;46.850;7.578;2023-05-07T05:42:58;95319.09;;;12.01;53.71
77871;BME280;67067;46.850;7.578;2023-05-07T05:44:00;95321.75;;;12.06;53.72